createdAt,value
2018-06-25T00:01:50.945Z,102429.82
2018-06-25T00:04:20.221Z,102431.69
2018-06-25T00:06:49.188Z,102428.20
2018-06-25T00:09:18.129Z,102429.21
2018-06-25T00:11:47.048Z,102434.35
2018-06-25T00:14:16.017Z,102428.47
2018-06-25T00:16:45.057Z,102426.64
2018-06-25T00:19:14.069Z,102428.19
2018-06-25T00:21:43.000Z,102433.65
2018-06-25T00:24:11.953Z,102428.12
2018-06-25T00:26:40.881Z,102428.73
2018-06-25T00:29:09.841Z,102432.59
2018-06-25T00:31:38.797Z,102425.89
2018-06-25T00:34:07.727Z,102429.40
2018-06-25T00:36:36.735Z,102430.23
2018-06-25T00:39:08.921Z,102419.95
2018-06-25T00:41:38.109Z,102413.56
2018-06-25T00:44:07.197Z,102407.69
2018-06-25T00:46:36.147Z,102408.13
2018-06-25T00:49:05.165Z,102411.52
2018-06-25T00:51:34.199Z,102406.41
2018-06-25T00:54:03.168Z,102398.01
2018-06-25T00:56:32.114Z,102396.86
2018-06-25T00:59:12.549Z,102397.08
2018-06-25T01:01:41.529Z,102401.58
2018-06-25T01:04:10.477Z,102400.58
2018-06-25T01:06:39.456Z,102392.36
2018-06-25T01:09:10.629Z,102409.16
2018-06-25T01:11:39.753Z,102400.33
2018-06-25T01:14:08.701Z,102396.41
2018-06-25T01:16:37.641Z,102394.99
2018-06-25T01:19:06.685Z,102395.73
2018-06-25T01:21:35.629Z,102394.38
2018-06-25T01:24:04.569Z,102401.80
2018-06-25T01:26:33.509Z,102392.67
2018-06-25T01:29:02.426Z,102393.58
2018-06-25T01:31:31.329Z,102401.39
2018-06-25T01:34:05.945Z,102402.61
2018-06-25T01:36:34.887Z,102398.69
2018-06-25T01:39:04.794Z,102404.77
2018-06-25T01:41:33.774Z,102407.88
2018-06-25T01:44:02.788Z,102404.28
2018-06-25T01:46:31.788Z,102402.22
2018-06-25T01:49:00.784Z,102409.29
2018-06-25T01:51:29.672Z,102410.58
2018-06-25T01:53:58.772Z,102412.61
2018-06-25T01:56:27.738Z,102406.34
2018-06-25T01:58:56.678Z,102405.85
2018-06-25T02:01:25.682Z,102404.11
2018-06-25T02:03:54.719Z,102407.48
2018-06-25T02:06:24.698Z,102413.27
2018-06-25T02:08:53.612Z,102409.42
2018-06-25T02:11:22.558Z,102404.25
2018-06-25T02:13:51.474Z,102404.98
2018-06-25T02:16:20.483Z,102405.18
2018-06-25T02:18:49.385Z,102399.45
2018-06-25T02:21:18.388Z,102402.00
2018-06-25T02:23:47.362Z,102396.76
2018-06-25T02:26:16.279Z,102393.52
2018-06-25T02:28:45.280Z,102400.03
2018-06-25T02:31:14.283Z,102393.96
2018-06-25T02:33:43.225Z,102399.78
2018-06-25T02:36:12.142Z,102389.59
2018-06-25T02:38:41.255Z,102389.95
2018-06-25T02:41:10.179Z,102387.47
2018-06-25T02:43:39.165Z,102389.30
2018-06-25T02:46:08.139Z,102386.80
2018-06-25T02:48:37.087Z,102387.15
2018-06-25T02:51:06.131Z,102393.16
2018-06-25T02:53:35.079Z,102386.34
2018-06-25T02:56:04.085Z,102390.78
2018-06-25T02:58:33.042Z,102382.36
2018-06-25T03:01:01.973Z,102385.19
2018-06-25T03:03:30.914Z,102388.30
2018-06-25T03:05:59.842Z,102390.39
2018-06-25T03:08:28.805Z,102387.15
2018-06-25T03:10:57.784Z,102391.55
2018-06-25T03:13:26.789Z,102390.14
2018-06-25T03:15:55.719Z,102393.99
2018-06-25T03:18:24.683Z,102386.77
2018-06-25T03:20:53.661Z,102379.41
2018-06-25T03:23:22.552Z,102386.64
2018-06-25T03:25:51.511Z,102385.61
2018-06-25T03:28:20.476Z,102388.59
2018-06-25T03:30:49.519Z,102382.71
2018-06-25T03:33:18.484Z,102378.98
2018-06-25T03:35:47.470Z,102385.89
2018-06-25T03:38:16.374Z,102389.84
2018-06-25T03:40:45.359Z,102388.85
2018-06-25T03:43:14.376Z,102391.55
2018-06-25T03:45:43.421Z,102389.11
2018-06-25T03:48:12.460Z,102388.08
2018-06-25T03:50:41.492Z,102387.53
2018-06-25T03:53:10.425Z,102396.23
2018-06-25T03:55:39.405Z,102396.07
2018-06-25T03:58:08.420Z,102403.46
2018-06-25T04:00:37.385Z,102402.73
2018-06-25T04:03:06.458Z,102404.66
2018-06-25T04:05:35.457Z,102404.18
2018-06-25T04:08:04.523Z,102399.44
2018-06-25T04:10:33.456Z,102413.02
2018-06-25T04:13:02.461Z,102411.13
2018-06-25T04:15:31.374Z,102408.13
2018-06-25T04:18:00.373Z,102408.55
2018-06-25T04:20:29.342Z,102420.00
2018-06-25T04:22:58.242Z,102421.73
2018-06-25T04:25:27.661Z,102425.88
2018-06-25T04:27:56.782Z,102431.20
2018-06-25T04:30:25.711Z,102436.13
2018-06-25T04:32:54.753Z,102437.47
2018-06-25T04:35:23.722Z,102441.34
2018-06-25T04:37:52.609Z,102445.77
2018-06-25T04:40:21.630Z,102448.27
2018-06-25T04:42:55.883Z,102440.66
2018-06-25T04:45:24.810Z,102450.06
2018-06-25T04:47:57.610Z,102445.46
2018-06-25T04:50:26.609Z,102444.69
2018-06-25T04:52:55.513Z,102441.58
2018-06-25T04:55:24.583Z,102441.69
2018-06-25T04:57:53.584Z,102451.03
2018-06-25T05:00:22.537Z,102449.75
2018-06-25T05:02:51.530Z,102465.73
2018-06-25T05:05:20.646Z,102458.22
2018-06-25T05:07:49.637Z,102468.22
2018-06-25T05:10:18.581Z,102466.28
2018-06-25T05:12:47.509Z,102461.84
2018-06-25T05:15:16.501Z,102467.51
2018-06-25T05:17:45.473Z,102472.15
2018-06-25T05:20:14.414Z,102476.88
2018-06-25T05:22:43.429Z,102477.94
2018-06-25T05:25:12.456Z,102479.03
2018-06-25T05:27:41.379Z,102479.22
2018-06-25T05:30:10.410Z,102479.95
2018-06-25T05:32:39.402Z,102473.58
2018-06-25T05:35:08.317Z,102473.34
2018-06-25T05:37:37.287Z,102475.41
2018-06-25T05:40:06.299Z,102483.03
2018-06-25T05:42:35.363Z,102480.48
2018-06-25T05:45:04.429Z,102481.37
2018-06-25T05:47:33.393Z,102485.45
2018-06-25T05:50:02.339Z,102491.09
2018-06-25T05:52:31.352Z,102489.79
2018-06-25T05:55:00.333Z,102499.38
2018-06-25T05:57:29.290Z,102497.33
2018-06-25T05:59:58.256Z,102497.34
2018-06-25T06:02:27.187Z,102493.11
2018-06-25T06:04:56.108Z,102499.13
2018-06-25T06:07:25.137Z,102498.32
2018-06-25T06:09:54.151Z,102508.21
2018-06-25T06:12:23.114Z,102513.52
2018-06-25T06:14:52.107Z,102515.45
2018-06-25T06:17:21.085Z,102518.13
2018-06-25T06:19:49.980Z,102512.69
2018-06-25T06:22:18.974Z,102519.27
2018-06-25T06:24:47.973Z,102514.80
2018-06-25T06:27:16.946Z,102521.49
2018-06-25T06:29:45.906Z,102508.69
2018-06-25T06:32:15.024Z,102522.07
2018-06-25T06:34:43.936Z,102514.97
2018-06-25T06:37:12.987Z,102524.02
2018-06-25T06:39:41.975Z,102509.34
2018-06-25T06:42:10.978Z,102511.84
2018-06-25T06:44:40.064Z,102515.22
2018-06-25T06:47:09.085Z,102514.48
2018-06-25T06:49:38.022Z,102523.45
2018-06-25T06:52:07.109Z,102524.93
2018-06-25T06:54:36.073Z,102513.38
2018-06-25T06:57:05.193Z,102514.86
2018-06-25T06:59:34.232Z,102521.30
2018-06-25T07:02:03.344Z,102523.38
2018-06-25T07:04:32.644Z,102513.05
2018-06-25T07:07:01.848Z,102523.90
2018-06-25T07:09:30.838Z,102515.95
2018-06-25T07:11:59.960Z,102522.23
2018-06-25T07:14:29.068Z,102519.56
2018-06-25T07:16:58.019Z,102516.98
2018-06-25T07:19:26.938Z,102518.45
2018-06-25T07:21:56.026Z,102528.23
2018-06-25T07:24:24.996Z,102521.75
2018-06-25T07:26:57.300Z,102522.83
2018-06-25T07:29:26.265Z,102523.48
2018-06-25T07:31:56.236Z,102523.23
2018-06-25T07:34:25.263Z,102528.83
2018-06-25T07:36:54.288Z,102533.64
2018-06-25T07:39:23.259Z,102534.86
2018-06-25T07:43:21.737Z,102532.74
2018-06-25T07:45:50.753Z,102536.48
2018-06-25T07:48:19.846Z,102539.41
2018-06-25T07:50:51.026Z,102542.09
2018-06-25T07:53:20.081Z,102542.42
2018-06-25T07:55:48.949Z,102541.80
2018-06-25T07:58:17.968Z,102540.83
2018-06-25T08:00:46.909Z,102551.52
2018-06-25T08:03:15.896Z,102553.66
2018-06-25T08:05:44.988Z,102556.09
2018-06-25T08:08:13.973Z,102550.20
2018-06-25T08:10:43.128Z,102552.81
2018-06-25T08:13:12.090Z,102554.03
2018-06-25T08:15:41.209Z,102561.81
2018-06-25T08:18:15.904Z,102564.42
2018-06-25T08:20:45.021Z,102563.86
2018-06-25T08:23:13.964Z,102559.70
2018-06-25T08:25:42.960Z,102559.98
2018-06-25T08:28:11.896Z,102561.84
2018-06-25T08:30:40.834Z,102569.48
2018-06-25T08:33:09.804Z,102567.72
2018-06-25T08:35:38.791Z,102567.60
2018-06-25T08:38:07.898Z,102568.98
2018-06-25T08:40:36.898Z,102575.77
2018-06-25T08:43:05.981Z,102567.83
2018-06-25T08:45:34.972Z,102570.75
2018-06-25T08:48:03.964Z,102581.67
2018-06-25T08:50:33.029Z,102583.11
2018-06-25T08:53:01.973Z,102587.34
2018-06-25T08:55:30.942Z,102587.50
2018-06-25T08:58:00.237Z,102580.38
2018-06-25T09:00:29.189Z,102585.25
2018-06-25T09:02:59.175Z,102585.69
2018-06-25T09:05:28.258Z,102590.02
2018-06-25T09:07:57.369Z,102587.42
2018-06-25T09:10:26.318Z,102584.30
2018-06-25T09:12:55.299Z,102588.09
2018-06-25T09:15:24.375Z,102583.23
2018-06-25T09:17:53.278Z,102587.38
2018-06-25T09:20:22.568Z,102598.77
2018-06-25T09:22:51.545Z,102582.55
2018-06-25T09:25:20.538Z,102582.89
2018-06-25T09:27:50.289Z,102582.69
2018-06-25T09:30:20.215Z,102587.42
2018-06-25T09:32:49.184Z,102593.35
2018-06-25T09:35:18.208Z,102596.97
2018-06-25T09:37:47.108Z,102589.17
2018-06-25T09:40:16.022Z,102595.67
2018-06-25T09:42:44.999Z,102606.09
2018-06-25T09:45:14.189Z,102601.30
2018-06-25T09:47:43.179Z,102598.59
2018-06-25T09:50:12.209Z,102592.61
2018-06-25T09:52:41.210Z,102597.27
2018-06-25T09:55:10.283Z,102602.51
2018-06-25T09:57:39.291Z,102601.92
2018-06-25T10:00:08.289Z,102598.61
2018-06-25T10:02:37.217Z,102598.19
2018-06-25T10:05:06.297Z,102597.81
2018-06-25T10:07:35.425Z,102595.61
2018-06-25T10:10:04.459Z,102588.12
2018-06-25T10:22:18.404Z,102583.98
2018-06-25T10:24:47.417Z,102587.86
2018-06-25T10:27:16.396Z,102594.60
2018-06-25T10:29:45.341Z,102593.91
2018-06-25T10:32:14.401Z,102589.32
2018-06-25T10:34:43.399Z,102588.09
2018-06-25T10:37:12.417Z,102583.72
2018-06-25T10:39:41.354Z,102581.94
2018-06-25T10:42:10.364Z,102583.58
2018-06-25T10:44:39.266Z,102577.92
2018-06-25T10:47:11.380Z,102574.12
2018-06-25T10:49:40.465Z,102581.43
2018-06-25T10:52:09.678Z,102584.96
2018-06-25T10:54:39.792Z,102581.22
2018-06-25T10:57:14.275Z,102581.95
2018-06-25T10:59:43.311Z,102577.66
2018-06-25T11:02:12.123Z,102570.77
2018-06-25T11:04:41.128Z,102568.30
2018-06-25T11:07:13.517Z,102574.88
2018-06-25T11:09:45.544Z,102566.81
2018-06-25T11:12:14.841Z,102569.23
2018-06-25T11:14:43.783Z,102568.98
2018-06-25T11:17:12.952Z,102565.45
2018-06-25T11:19:42.367Z,102564.63
2018-06-25T11:22:11.475Z,102569.28
2018-06-25T11:24:41.038Z,102570.06
2018-06-25T11:27:11.329Z,102574.26
2018-06-25T11:29:41.317Z,102567.59
2018-06-25T11:32:10.932Z,102558.13
2018-06-25T11:34:39.982Z,102564.08
2018-06-25T11:37:09.321Z,102554.14
2018-06-25T11:39:38.237Z,102560.12
2018-06-25T11:42:08.075Z,102557.23
2018-06-25T11:44:37.233Z,102555.44
2018-06-25T11:47:06.580Z,102550.52
2018-06-25T11:49:36.728Z,102549.94
2018-06-25T11:52:06.181Z,102545.47
2018-06-25T11:54:35.558Z,102546.72
2018-06-25T11:57:08.281Z,102550.97
2018-06-25T11:59:41.105Z,102547.30
2018-06-25T12:02:10.366Z,102543.74
2018-06-25T12:04:39.319Z,102531.84
2018-06-25T12:07:10.334Z,102540.11
2018-06-25T12:09:42.410Z,102548.65
2018-06-25T12:12:11.512Z,102543.23
2018-06-25T12:14:40.440Z,102540.81
2018-06-25T12:17:09.354Z,102545.08
2018-06-25T12:19:38.415Z,102543.92
2018-06-25T12:22:07.375Z,102540.12
2018-06-25T12:24:36.381Z,102539.16
2018-06-25T12:27:06.340Z,102549.14
2018-06-25T12:29:39.005Z,102532.45
2018-06-25T12:32:09.014Z,102538.37
2018-06-25T12:34:37.905Z,102532.74
2018-06-25T12:37:06.859Z,102528.84
2018-06-25T12:39:35.785Z,102531.67
2018-06-25T12:42:04.761Z,102534.30
2018-06-25T12:44:33.742Z,102528.27
2018-06-25T12:47:02.722Z,102552.66
2018-06-25T12:49:32.644Z,102540.03
2018-06-25T12:52:02.143Z,102547.41
2018-06-25T12:54:31.085Z,102547.98
2018-06-25T12:57:00.368Z,102555.47
2018-06-25T12:59:29.377Z,102547.80
2018-06-25T13:01:58.403Z,102560.12
2018-06-25T13:04:27.402Z,102584.03
2018-06-25T13:06:56.367Z,102558.09
2018-06-25T13:09:25.282Z,102553.24
2018-06-25T13:11:54.330Z,102556.34
2018-06-25T13:14:25.680Z,102554.89
2018-06-25T13:16:54.620Z,102572.09
2018-06-25T13:19:23.529Z,102559.55
2018-06-25T13:21:52.464Z,102559.05
2018-06-25T13:24:26.919Z,102562.00
2018-06-25T13:27:01.548Z,102558.28
2018-06-25T13:29:36.019Z,102556.42
2018-06-25T13:32:04.995Z,102553.41
2018-06-25T13:34:33.961Z,102549.95
2018-06-25T13:37:02.903Z,102561.09
2018-06-25T13:39:40.712Z,102553.73
2018-06-25T13:42:09.672Z,102546.27
2018-06-25T13:44:38.727Z,102551.75
2018-06-25T13:47:07.799Z,102556.14
2018-06-25T13:49:41.734Z,102554.12
2018-06-25T13:52:10.729Z,102552.07
2018-06-25T13:54:39.782Z,102557.33
2018-06-25T13:57:09.709Z,102549.64
2018-06-25T13:59:38.781Z,102553.74
2018-06-25T14:02:07.859Z,102554.20
2018-06-25T14:04:37.103Z,102567.25
2018-06-25T14:07:06.205Z,102550.03
2018-06-25T14:09:35.165Z,102554.52
2018-06-25T14:12:04.148Z,102553.34
2018-06-25T14:14:33.176Z,102557.23
2018-06-25T14:17:02.189Z,102544.31
2018-06-25T14:19:31.048Z,102542.84
2018-06-25T14:22:00.057Z,102548.67
2018-06-25T14:25:02.072Z,102539.73
2018-06-25T14:27:36.428Z,102541.87
2018-06-25T14:30:10.591Z,102541.96
2018-06-25T14:32:40.235Z,102544.99
2018-06-25T14:35:15.830Z,102540.23
2018-06-25T14:37:45.673Z,102539.25
2018-06-25T14:40:14.701Z,102542.77
2018-06-25T14:42:43.905Z,102545.58
2018-06-25T14:45:14.875Z,102539.36
2018-06-25T14:47:43.900Z,102536.83
2018-06-25T14:50:12.841Z,102533.10
2018-06-25T14:52:41.777Z,102546.98
2018-06-25T14:55:11.389Z,102549.26
2018-06-25T14:57:40.370Z,102533.09
2018-06-25T15:00:09.292Z,102552.67
2018-06-25T15:02:38.288Z,102558.47
2018-06-25T15:05:10.735Z,102558.67
2018-06-25T15:07:39.705Z,102553.33
2018-06-25T15:10:08.663Z,102554.20
2018-06-25T15:12:37.723Z,102548.66
2018-06-25T15:15:06.702Z,102557.42
2018-06-25T15:17:35.654Z,102548.68
2018-06-25T15:20:04.701Z,102542.64
2018-06-25T15:22:33.680Z,102547.69
2018-06-25T15:25:02.644Z,102548.94
2018-06-25T15:27:35.191Z,102543.91
2018-06-25T15:30:04.258Z,102553.88
2018-06-25T15:32:33.178Z,102544.59
2018-06-25T15:35:02.255Z,102541.68
2018-06-25T15:37:34.213Z,102536.61
2018-06-25T15:40:06.589Z,102546.34
2018-06-25T15:42:35.527Z,102538.19
2018-06-25T15:45:05.491Z,102531.98
2018-06-25T15:47:34.484Z,102530.61
2018-06-25T15:50:04.866Z,102529.44
2018-06-25T15:52:33.897Z,102531.38
2018-06-25T15:55:02.921Z,102530.20
2018-06-25T15:57:35.545Z,102540.51
2018-06-25T16:00:04.798Z,102541.98
2018-06-25T16:02:34.415Z,102547.77
2018-06-25T16:05:05.405Z,102544.11
2018-06-25T16:07:34.367Z,102528.26
2018-06-25T16:10:03.358Z,102531.56
2018-06-25T16:12:32.386Z,102538.17
2018-06-25T16:15:01.306Z,102541.98
2018-06-25T16:17:30.268Z,102543.80
2018-06-25T16:19:59.244Z,102544.89
2018-06-25T16:22:28.257Z,102534.38
2018-06-25T16:24:57.184Z,102543.21
2018-06-25T16:27:26.182Z,102531.37
2018-06-25T16:29:55.139Z,102532.55
2018-06-25T16:32:24.234Z,102529.03
2018-06-25T16:34:53.154Z,102536.54
2018-06-25T16:37:22.078Z,102535.14
2018-06-25T16:39:51.064Z,102530.58
2018-06-25T16:42:20.067Z,102539.22
2018-06-25T16:44:49.038Z,102527.22
2018-06-25T16:47:18.150Z,102530.13
2018-06-25T16:49:47.115Z,102529.98
2018-06-25T16:52:16.132Z,102540.88
2018-06-25T16:54:45.256Z,102549.73
2018-06-25T16:57:14.165Z,102544.20
2018-06-25T16:59:46.310Z,102543.94
2018-06-25T17:02:15.268Z,102552.20
2018-06-25T17:04:44.183Z,102555.73
2018-06-25T17:07:13.175Z,102542.70
2018-06-25T17:09:45.433Z,102552.70
2018-06-25T17:12:15.388Z,102540.03
2018-06-25T17:14:44.320Z,102530.27
2018-06-25T17:17:13.292Z,102543.86
2018-06-25T17:19:42.279Z,102536.61
2018-06-25T17:22:11.292Z,102540.03
2018-06-25T17:24:40.274Z,102541.92
2018-06-25T17:27:09.151Z,102531.06
2018-06-25T17:29:38.168Z,102547.31
2018-06-25T17:32:07.850Z,102543.16
2018-06-25T17:34:36.764Z,102539.16
2018-06-25T17:37:05.706Z,102543.14
2018-06-25T17:39:34.644Z,102538.02
2018-06-25T17:42:03.578Z,102546.38
2018-06-25T17:44:32.561Z,102549.38
2018-06-25T17:47:01.593Z,102558.16
2018-06-25T17:49:30.537Z,102555.27
2018-06-25T17:52:01.482Z,102557.98
2018-06-25T17:54:30.463Z,102549.53
2018-06-25T17:56:59.446Z,102551.02
2018-06-25T17:59:31.949Z,102540.94
2018-06-25T18:02:00.921Z,102544.19
2018-06-25T18:04:29.916Z,102550.73
2018-06-25T18:06:58.962Z,102563.01
2018-06-25T18:09:27.875Z,102559.08
2018-06-25T18:12:02.544Z,102564.41
2018-06-25T18:14:31.493Z,102555.78
2018-06-25T18:17:00.439Z,102549.45
2018-06-25T18:19:29.408Z,102553.54
2018-06-25T18:22:02.123Z,102555.47
2018-06-25T18:24:31.082Z,102559.32
2018-06-25T18:27:00.039Z,102560.56
2018-06-25T18:29:28.988Z,102569.28
2018-06-25T18:31:57.940Z,102566.97
2018-06-25T18:34:26.878Z,102567.95
2018-06-25T18:36:55.790Z,102557.98
2018-06-25T18:39:24.754Z,102568.56
2018-06-25T18:41:53.721Z,102572.91
2018-06-25T18:44:23.534Z,102568.28
2018-06-25T18:46:52.524Z,102556.05
2018-06-25T18:49:24.902Z,102552.20
2018-06-25T18:51:53.898Z,102550.91
2018-06-25T18:54:22.859Z,102556.56
2018-06-25T18:56:51.775Z,102551.36
2018-06-25T18:59:20.774Z,102552.98
2018-06-25T19:01:53.345Z,102550.70
2018-06-25T19:04:22.325Z,102547.70
2018-06-25T19:06:51.424Z,102548.85
2018-06-25T19:09:20.437Z,102553.08
2018-06-25T19:11:49.361Z,102554.58
2018-06-25T19:14:18.328Z,102558.57
2018-06-25T19:16:48.307Z,102553.64
2018-06-25T19:19:17.256Z,102556.02
2018-06-25T19:21:46.202Z,102565.75
2018-06-25T19:24:15.179Z,102560.97
2018-06-25T19:26:44.124Z,102570.75
2018-06-25T19:29:13.091Z,102569.31
2018-06-25T19:31:42.043Z,102568.44
2018-06-25T19:34:10.984Z,102569.63
2018-06-25T19:36:43.330Z,102572.08
2018-06-25T19:39:13.531Z,102568.09
2018-06-25T19:41:42.499Z,102569.45
2018-06-25T19:44:12.280Z,102568.66
2018-06-25T19:46:41.291Z,102571.81
2018-06-25T19:49:15.848Z,102573.63
2018-06-25T19:51:51.263Z,102581.22
2018-06-25T19:54:20.241Z,102588.19
2018-06-25T19:56:49.201Z,102581.28
2018-06-25T19:59:18.160Z,102590.60
2018-06-25T20:01:51.052Z,102590.36
2018-06-25T20:04:20.048Z,102595.05
2018-06-25T20:06:49.973Z,102594.67
2018-06-25T20:09:18.925Z,102594.31
2018-06-25T20:11:47.861Z,102605.61
2018-06-25T20:14:16.821Z,102608.77
2018-06-25T20:16:45.835Z,102606.59
2018-06-25T20:19:20.204Z,102609.80
2018-06-25T20:21:49.178Z,102611.38
2018-06-25T20:24:18.144Z,102607.33
2018-06-25T20:26:47.091Z,102614.02
2018-06-25T20:29:17.176Z,102615.93
2018-06-25T20:31:46.060Z,102612.97
2018-06-25T20:34:15.033Z,102615.88
2018-06-25T20:36:44.074Z,102614.22
2018-06-25T20:39:18.729Z,102615.17
2018-06-25T20:41:48.048Z,102615.06
2018-06-25T20:44:17.046Z,102618.63
2018-06-25T20:46:46.037Z,102607.83
2018-06-25T20:49:15.002Z,102620.10
2018-06-25T20:51:44.539Z,102626.58
2018-06-25T20:54:15.607Z,102625.89
2018-06-25T20:56:44.555Z,102625.30
2018-06-25T20:59:13.538Z,102622.38
2018-06-25T21:01:42.606Z,102625.61
2018-06-25T21:04:11.565Z,102627.68
2018-06-25T21:06:40.531Z,102623.78
2018-06-25T21:09:11.136Z,102621.73
2018-06-25T21:11:42.290Z,102626.64
2018-06-25T21:14:11.242Z,102627.89
2018-06-25T21:16:40.214Z,102631.41
2018-06-25T21:19:09.154Z,102620.60
2018-06-25T21:21:38.170Z,102621.30
2018-06-25T21:24:07.129Z,102622.65
2018-06-25T21:26:36.093Z,102615.24
2018-06-25T21:29:05.457Z,102614.13
2018-06-25T21:31:34.383Z,102614.94
2018-06-25T21:34:07.188Z,102622.00
2018-06-25T21:36:36.132Z,102617.46
2018-06-25T21:39:07.026Z,102621.20
2018-06-25T21:41:35.956Z,102627.76
2018-06-25T21:44:05.017Z,102629.81
2018-06-25T21:46:34.197Z,102629.27
2018-06-25T21:49:03.553Z,102628.46
2018-06-25T21:51:41.948Z,102628.62
2018-06-25T21:54:10.870Z,102624.36
2018-06-25T21:56:39.801Z,102624.47
2018-06-25T21:59:08.792Z,102626.87
2018-06-25T22:01:37.892Z,102624.19
2018-06-25T22:04:06.973Z,102625.00
2018-06-25T22:06:35.910Z,102630.67
2018-06-25T22:09:08.128Z,102623.27
2018-06-25T22:11:37.082Z,102625.02
2018-06-25T22:14:06.074Z,102623.03
2018-06-25T22:16:35.268Z,102621.20
2018-06-25T22:19:04.502Z,102631.41
2018-06-25T22:21:33.458Z,102624.38
2018-06-25T22:24:02.502Z,102623.20
2018-06-25T22:26:31.477Z,102629.69
2018-06-25T22:29:00.444Z,102628.95
2018-06-25T22:31:29.425Z,102623.89
2018-06-25T22:33:58.384Z,102625.33
2018-06-25T22:36:30.654Z,102624.20
2018-06-25T22:38:59.696Z,102627.48
2018-06-25T22:41:28.640Z,102624.31
2018-06-25T22:44:08.924Z,102620.95
2018-06-25T22:46:39.122Z,102620.89
2018-06-25T22:49:13.623Z,102628.39
2018-06-25T22:51:48.093Z,102626.51
2018-06-25T22:54:17.049Z,102631.83
2018-06-25T22:56:46.035Z,102627.84
2018-06-25T22:59:15.032Z,102624.06
2018-06-25T23:01:44.004Z,102628.50
2018-06-25T23:04:12.918Z,102629.56
2018-06-25T23:06:41.861Z,102620.98
2018-06-25T23:09:11.666Z,102617.58
2018-06-25T23:11:40.624Z,102619.22
2018-06-25T23:14:09.571Z,102616.52
2018-06-25T23:16:38.562Z,102615.76
2018-06-25T23:19:07.500Z,102617.82
2018-06-25T23:21:36.378Z,102618.93
2018-06-25T23:24:05.361Z,102612.72
2018-06-25T23:26:34.333Z,102615.23
2018-06-25T23:29:03.380Z,102616.28
2018-06-25T23:31:32.327Z,102627.45
2018-06-25T23:34:01.269Z,102608.45
2018-06-25T23:36:30.197Z,102626.34
2018-06-25T23:38:59.141Z,102620.18
2018-06-25T23:41:28.166Z,102629.91
2018-06-25T23:43:57.183Z,102625.19
2018-06-25T23:46:26.207Z,102626.09
2018-06-25T23:48:55.139Z,102632.20
2018-06-25T23:51:24.153Z,102633.75
2018-06-25T23:53:53.138Z,102636.58
2018-06-25T23:56:22.751Z,102637.45
2018-06-25T23:58:52.048Z,102630.81
